sensor_id;sensor_type;location;lat;lon;timestamp;pressure;altitude;pressure_sealevel;temperature;humidity
44075;BME280;60448;44.956;7.660;2023-02-12T00:00:00;100390;;;13.9;48.9
44075;BME280;60448;44.956;7.660;2023-02-12T00:05:00;100380;;;13.9;48.8
44075;BME280;60448;44.956;7.660;2023-02-12T00:10:00;100370;;;13.9;48.8
44075;BME280;60448;44.956;7.660;2023-02-12T00:15:00;100370;;;13.9;48.8
44075;BME280;60448;44.956;7.660;2023-02-12T00:20:00;100370;;;13.9;48.8
44075;BME280;60448;44.956;7.660;2023-02-12T00:25:00;100360;;;13.9;48.7
44075;BME280;60448;44.956;7.660;2023-02-12T00:30:00;100360;;;13.9;48.7
44075;BME280;60448;44.956;7.660;2023-02-12T00:35:00;100360;;;13.9;48.7
44075;BME280;60448;44.956;7.660;2023-02-12T00:40:00;100370;;;13.9;48.6
44075;BME280;60448;44.956;7.660;2023-02-12T00:45:00;100370;;;13.9;48.6
44075;BME280;60448;44.956;7.660;2023-02-12T00:50:00;100370;;;13.9;48.6
44075;BME280;60448;44.956;7.660;2023-02-12T00:55:00;100350;;;13.8;48.6
44075;BME280;60448;44.956;7.660;2023-02-12T01:00:00;100350;;;13.8;48.5
44075;BME280;60448;44.956;7.660;2023-02-12T01:05:00;100350;;;13.8;48.5
44075;BME280;60448;44.956;7.660;2023-02-12T01:10:00;100350;;;13.8;48.5
44075;BME280;60448;44.956;7.660;2023-02-12T01:15:00;100340;;;13.8;48.4
44075;BME280;60448;44.956;7.660;2023-02-12T01:20:00;100340;;;13.8;48.4
44075;BME280;60448;44.956;7.660;2023-02-12T01:25:01;100340;;;13.8;48.4
44075;BME280;60448;44.956;7.660;2023-02-12T01:30:00;100330;;;13.8;48.4
44075;BME280;60448;44.956;7.660;2023-02-12T01:35:00;100330;;;13.8;48.4
44075;BME280;60448;44.956;7.660;2023-02-12T01:40:00;100330;;;13.8;48.4
44075;BME280;60448;44.956;7.660;2023-02-12T01:50:00;100320;;;13.8;48.4
44075;BME280;60448;44.956;7.660;2023-02-12T01:55:01;100320;;;13.8;48.4
44075;BME280;60448;44.956;7.660;2023-02-12T02:00:00;100300;;;13.7;48.3
44075;BME280;60448;44.956;7.660;2023-02-12T02:05:01;100300;;;13.7;48.3
44075;BME280;60448;44.956;7.660;2023-02-12T02:10:00;100300;;;13.7;48.3
44075;BME280;60448;44.956;7.660;2023-02-12T02:15:00;100290;;;13.7;48.3
44075;BME280;60448;44.956;7.660;2023-02-12T02:35:04;100270;;;13.7;48.2
44075;BME280;60448;44.956;7.660;2023-02-12T02:40:06;100270;;;13.7;48.2
44075;BME280;60448;44.956;7.660;2023-02-12T02:50:02;100260;;;13.6;48.1
44075;BME280;60448;44.956;7.660;2023-02-12T02:55:02;100260;;;13.6;48.1
44075;BME280;60448;44.956;7.660;2023-02-12T03:00:06;100260;;;13.6;48.1
44075;BME280;60448;44.956;7.660;2023-02-12T03:05:03;100240;;;13.7;48.1
44075;BME280;60448;44.956;7.660;2023-02-12T03:10:03;100230;;;13.6;48.1
44075;BME280;60448;44.956;7.660;2023-02-12T03:15:05;100230;;;13.6;48.1
44075;BME280;60448;44.956;7.660;2023-02-12T03:20:18;100230;;;13.6;48.1
44075;BME280;60448;44.956;7.660;2023-02-12T03:25:15;100230;;;13.6;48.0
44075;BME280;60448;44.956;7.660;2023-02-12T03:30:00;100230;;;13.6;48.0
44075;BME280;60448;44.956;7.660;2023-02-12T03:35:09;100230;;;13.6;48.0
44075;BME280;60448;44.956;7.660;2023-02-12T03:50:05;100230;;;13.5;48.1
44075;BME280;60448;44.956;7.660;2023-02-12T03:55:01;100240;;;13.5;48.0
44075;BME280;60448;44.956;7.660;2023-02-12T04:00:03;100240;;;13.5;48.0
44075;BME280;60448;44.956;7.660;2023-02-12T04:05:08;100240;;;13.5;48.0
44075;BME280;60448;44.956;7.660;2023-02-12T04:10:00;100240;;;13.5;48.0
44075;BME280;60448;44.956;7.660;2023-02-12T04:40:02;100270;;;13.5;48.0
44075;BME280;60448;44.956;7.660;2023-02-12T04:45:00;100270;;;13.5;47.9
44075;BME280;60448;44.956;7.660;2023-02-12T04:50:00;100270;;;13.4;47.9
44075;BME280;60448;44.956;7.660;2023-02-12T04:55:00;100270;;;13.4;47.9
44075;BME280;60448;44.956;7.660;2023-02-12T05:00:00;100270;;;13.4;47.9
44075;BME280;60448;44.956;7.660;2023-02-12T05:05:00;100260;;;13.4;47.9
44075;BME280;60448;44.956;7.660;2023-02-12T05:10:00;100260;;;13.4;47.9
44075;BME280;60448;44.956;7.660;2023-02-12T05:15:00;100260;;;13.4;47.9
44075;BME280;60448;44.956;7.660;2023-02-12T05:20:00;100270;;;13.4;47.8
44075;BME280;60448;44.956;7.660;2023-02-12T05:25:00;100270;;;13.4;47.8
44075;BME280;60448;44.956;7.660;2023-02-12T05:30:00;100270;;;13.4;47.8
44075;BME280;60448;44.956;7.660;2023-02-12T05:35:00;100280;;;13.4;47.7
44075;BME280;60448;44.956;7.660;2023-02-12T05:40:02;100280;;;13.4;47.7
44075;BME280;60448;44.956;7.660;2023-02-12T05:45:00;100280;;;13.4;47.7
44075;BME280;60448;44.956;7.660;2023-02-12T05:50:00;100280;;;13.3;47.6
44075;BME280;60448;44.956;7.660;2023-02-12T05:55:00;100280;;;13.3;47.6
44075;BME280;60448;44.956;7.660;2023-02-12T06:00:00;100280;;;13.3;47.6
44075;BME280;60448;44.956;7.660;2023-02-12T06:05:00;100280;;;13.3;47.6
44075;BME280;60448;44.956;7.660;2023-02-12T06:10:00;100270;;;13.3;47.5
44075;BME280;60448;44.956;7.660;2023-02-12T06:15:00;100270;;;13.3;47.5
44075;BME280;60448;44.956;7.660;2023-02-12T06:20:00;100270;;;13.3;47.5
44075;BME280;60448;44.956;7.660;2023-02-12T06:25:00;100270;;;13.2;47.5
44075;BME280;60448;44.956;7.660;2023-02-12T06:30:00;100270;;;13.2;47.5
44075;BME280;60448;44.956;7.660;2023-02-12T06:35:00;100270;;;13.2;47.5
44075;BME280;60448;44.956;7.660;2023-02-12T06:40:00;100270;;;13.2;47.5
44075;BME280;60448;44.956;7.660;2023-02-12T06:45:00;100270;;;13.2;47.5
44075;BME280;60448;44.956;7.660;2023-02-12T06:50:00;100270;;;13.2;47.5
44075;BME280;60448;44.956;7.660;2023-02-12T06:55:00;100280;;;13.2;47.5
44075;BME280;60448;44.956;7.660;2023-02-12T07:00:00;100280;;;13.2;47.5
44075;BME280;60448;44.956;7.660;2023-02-12T07:05:00;100280;;;13.2;47.5
44075;BME280;60448;44.956;7.660;2023-02-12T07:10:00;100280;;;13.2;47.5
44075;BME280;60448;44.956;7.660;2023-02-12T07:15:00;100290;;;13.2;47.5
44075;BME280;60448;44.956;7.660;2023-02-12T07:20:01;100290;;;13.2;47.5
44075;BME280;60448;44.956;7.660;2023-02-12T07:25:00;100290;;;13.2;47.5
44075;BME280;60448;44.956;7.660;2023-02-12T07:30:00;100290;;;13.2;47.5
44075;BME280;60448;44.956;7.660;2023-02-12T07:35:00;100290;;;13.2;47.5
44075;BME280;60448;44.956;7.660;2023-02-12T07:40:00;100290;;;13.2;47.5
44075;BME280;60448;44.956;7.660;2023-02-12T07:45:00;100310;;;13.2;47.4
44075;BME280;60448;44.956;7.660;2023-02-12T07:50:00;100310;;;13.2;47.4
44075;BME280;60448;44.956;7.660;2023-02-12T07:55:00;100310;;;13.2;47.4
44075;BME280;60448;44.956;7.660;2023-02-12T08:00:00;100320;;;13.3;47.3
44075;BME280;60448;44.956;7.660;2023-02-12T08:05:00;100320;;;13.3;47.3
44075;BME280;60448;44.956;7.660;2023-02-12T08:10:00;100320;;;13.3;47.3
44075;BME280;60448;44.956;7.660;2023-02-12T08:15:00;100330;;;13.3;47.2
44075;BME280;60448;44.956;7.660;2023-02-12T08:20:00;100330;;;13.3;47.2
44075;BME280;60448;44.956;7.660;2023-02-12T08:25:00;100330;;;13.3;47.2
44075;BME280;60448;44.956;7.660;2023-02-12T08:30:00;100340;;;13.3;47.2
44075;BME280;60448;44.956;7.660;2023-02-12T08:35:00;100340;;;13.3;47.2
44075;BME280;60448;44.956;7.660;2023-02-12T08:40:00;100340;;;13.3;47.2
44075;BME280;60448;44.956;7.660;2023-02-12T08:45:00;100360;;;13.3;47.2
44075;BME280;60448;44.956;7.660;2023-02-12T08:50:00;100350;;;13.3;47.3
44075;BME280;60448;44.956;7.660;2023-02-12T08:55:00;100350;;;13.3;47.3
44075;BME280;60448;44.956;7.660;2023-02-12T09:00:00;100350;;;13.3;47.3
44075;BME280;60448;44.956;7.660;2023-02-12T09:05:00;100360;;;13.2;47.4
44075;BME280;60448;44.956;7.660;2023-02-12T09:10:00;100360;;;13.2;47.4
44075;BME280;60448;44.956;7.660;2023-02-12T09:15:00;100360;;;13.2;47.4
44075;BME280;60448;44.956;7.660;2023-02-12T09:20:00;100360;;;13.2;47.7
44075;BME280;60448;44.956;7.660;2023-02-12T09:25:00;100360;;;13.2;47.7
44075;BME280;60448;44.956;7.660;2023-02-12T09:30:00;100360;;;13.2;47.7
44075;BME280;60448;44.956;7.660;2023-02-12T09:35:00;100340;;;13.2;47.9
44075;BME280;60448;44.956;7.660;2023-02-12T09:40:00;100340;;;13.2;47.9
44075;BME280;60448;44.956;7.660;2023-02-12T09:55:00;100340;;;13.1;48.0
44075;BME280;60448;44.956;7.660;2023-02-12T10:00:03;100340;;;13.1;48.0
44075;BME280;60448;44.956;7.660;2023-02-12T10:05:00;100350;;;13.1;48.0
44075;BME280;60448;44.956;7.660;2023-02-12T10:10:05;100350;;;13.1;48.0
44075;BME280;60448;44.956;7.660;2023-02-12T10:30:00;100360;;;13.1;48.2
44075;BME280;60448;44.956;7.660;2023-02-12T10:35:00;100360;;;13.1;48.2
44075;BME280;60448;44.956;7.660;2023-02-12T10:40:03;100350;;;13.1;48.2
44075;BME280;60448;44.956;7.660;2023-02-12T10:45:00;100350;;;13.1;48.2
44075;BME280;60448;44.956;7.660;2023-02-12T10:50:12;100350;;;13.1;48.2
44075;BME280;60448;44.956;7.660;2023-02-12T10:55:00;100340;;;13.1;48.3
44075;BME280;60448;44.956;7.660;2023-02-12T11:05:14;100340;;;13.1;48.3
44075;BME280;60448;44.956;7.660;2023-02-12T11:10:00;100330;;;13.1;48.4
44075;BME280;60448;44.956;7.660;2023-02-12T11:15:02;100330;;;13.1;48.4
44075;BME280;60448;44.956;7.660;2023-02-12T11:20:03;100330;;;13.1;48.4
44075;BME280;60448;44.956;7.660;2023-02-12T11:25:01;100320;;;13.1;48.5
44075;BME280;60448;44.956;7.660;2023-02-12T11:30:06;100320;;;13.1;48.5
44075;BME280;60448;44.956;7.660;2023-02-12T11:35:05;100320;;;13.1;48.5
44075;BME280;60448;44.956;7.660;2023-02-12T11:40:00;100310;;;13.1;48.7
44075;BME280;60448;44.956;7.660;2023-02-12T11:45:00;100310;;;13.1;48.7
44075;BME280;60448;44.956;7.660;2023-02-12T11:55:03;100300;;;13.1;48.8
44075;BME280;60448;44.956;7.660;2023-02-12T12:00:02;100300;;;13.1;48.8
44075;BME280;60448;44.956;7.660;2023-02-12T12:10:03;100300;;;13.1;48.8
44075;BME280;60448;44.956;7.660;2023-02-12T12:15:06;100280;;;13.1;49.0
44075;BME280;60448;44.956;7.660;2023-02-12T12:20:04;100280;;;13.1;49.0
44075;BME280;60448;44.956;7.660;2023-02-12T12:30:01;100270;;;13.1;49.0
44075;BME280;60448;44.956;7.660;2023-02-12T12:35:00;100270;;;13.1;49.0
44075;BME280;60448;44.956;7.660;2023-02-12T13:15:02;100240;;;13.2;49.1
44075;BME280;60448;44.956;7.660;2023-02-12T13:25:19;100240;;;13.2;49.1
44075;BME280;60448;44.956;7.660;2023-02-12T13:30:04;100230;;;13.2;49.1
44075;BME280;60448;44.956;7.660;2023-02-12T13:35:00;100230;;;13.2;49.2
44075;BME280;60448;44.956;7.660;2023-02-12T13:40:02;100230;;;13.2;49.2
44075;BME280;60448;44.956;7.660;2023-02-12T13:45:04;100220;;;13.3;49.1
44075;BME280;60448;44.956;7.660;2023-02-12T13:50:35;100210;;;13.2;49.2
44075;BME280;60448;44.956;7.660;2023-02-12T13:55:07;100210;;;13.2;49.2
44075;BME280;60448;44.956;7.660;2023-02-12T14:00:00;100210;;;13.2;49.2
44075;BME280;60448;44.956;7.660;2023-02-12T14:10:01;100210;;;13.3;49.1
44075;BME280;60448;44.956;7.660;2023-02-12T14:25:04;100200;;;13.3;49.1
44075;BME280;60448;44.956;7.660;2023-02-12T14:30:01;100200;;;13.3;49.1
44075;BME280;60448;44.956;7.660;2023-02-12T14:35:26;100190;;;13.4;49.1
44075;BME280;60448;44.956;7.660;2023-02-12T14:45:00;100190;;;13.4;49.1
44075;BME280;60448;44.956;7.660;2023-02-12T14:50:02;100190;;;13.5;49.0
44075;BME280;60448;44.956;7.660;2023-02-12T14:55:02;100190;;;13.5;49.0
44075;BME280;60448;44.956;7.660;2023-02-12T15:05:03;100200;;;13.6;48.9
44075;BME280;60448;44.956;7.660;2023-02-12T15:10:02;100200;;;13.5;48.9
44075;BME280;60448;44.956;7.660;2023-02-12T15:15:03;100200;;;13.5;48.9
44075;BME280;60448;44.956;7.660;2023-02-12T15:20:01;100200;;;13.5;48.9
44075;BME280;60448;44.956;7.660;2023-02-12T15:30:00;100200;;;13.6;48.9
44075;BME280;60448;44.956;7.660;2023-02-12T15:35:00;100200;;;13.6;48.9
44075;BME280;60448;44.956;7.660;2023-02-12T15:40:00;100210;;;13.6;48.9
44075;BME280;60448;44.956;7.660;2023-02-12T15:50:00;100210;;;13.6;48.9
44075;BME280;60448;44.956;7.660;2023-02-12T15:55:01;100210;;;13.7;49.0
44075;BME280;60448;44.956;7.660;2023-02-12T16:00:05;100210;;;13.7;49.0
44075;BME280;60448;44.956;7.660;2023-02-12T16:05:01;100210;;;13.7;49.0
44075;BME280;60448;44.956;7.660;2023-02-12T16:10:00;100220;;;13.8;49.0
44075;BME280;60448;44.956;7.660;2023-02-12T16:15:00;100220;;;13.8;49.0
44075;BME280;60448;44.956;7.660;2023-02-12T16:20:01;100220;;;13.8;49.0
44075;BME280;60448;44.956;7.660;2023-02-12T16:25:00;100240;;;13.9;49.1
44075;BME280;60448;44.956;7.660;2023-02-12T16:30:02;100240;;;13.8;49.1
44075;BME280;60448;44.956;7.660;2023-02-12T16:35:04;100240;;;13.8;49.1
44075;BME280;60448;44.956;7.660;2023-02-12T16:45:00;100260;;;13.9;49.1
44075;BME280;60448;44.956;7.660;2023-02-12T16:50:00;100260;;;13.9;49.1
44075;BME280;60448;44.956;7.660;2023-02-12T16:55:00;100260;;;13.9;49.1
44075;BME280;60448;44.956;7.660;2023-02-12T17:00:00;100300;;;13.9;49.1
44075;BME280;60448;44.956;7.660;2023-02-12T17:05:01;100300;;;13.9;49.1
44075;BME280;60448;44.956;7.660;2023-02-12T17:10:00;100300;;;13.9;49.1
44075;BME280;60448;44.956;7.660;2023-02-12T17:15:02;100330;;;14.0;49.2
44075;BME280;60448;44.956;7.660;2023-02-12T17:20:00;100330;;;14.0;49.2
44075;BME280;60448;44.956;7.660;2023-02-12T17:25:00;100330;;;14.0;49.2
44075;BME280;60448;44.956;7.660;2023-02-12T17:30:00;100350;;;14.1;49.2
44075;BME280;60448;44.956;7.660;2023-02-12T17:35:00;100350;;;14.1;49.2
44075;BME280;60448;44.956;7.660;2023-02-12T17:40:00;100350;;;14.1;49.2
44075;BME280;60448;44.956;7.660;2023-02-12T17:45:00;100380;;;14.1;49.3
44075;BME280;60448;44.956;7.660;2023-02-12T17:50:00;100380;;;14.1;49.3
44075;BME280;60448;44.956;7.660;2023-02-12T17:55:00;100380;;;14.1;49.3
44075;BME280;60448;44.956;7.660;2023-02-12T18:00:00;100400;;;14.1;49.3
44075;BME280;60448;44.956;7.660;2023-02-12T18:05:00;100400;;;14.1;49.3
44075;BME280;60448;44.956;7.660;2023-02-12T18:10:00;100400;;;14.1;49.3
44075;BME280;60448;44.956;7.660;2023-02-12T18:15:00;100430;;;14.2;49.3
44075;BME280;60448;44.956;7.660;2023-02-12T18:20:00;100430;;;14.2;49.3
44075;BME280;60448;44.956;7.660;2023-02-12T18:25:00;100430;;;14.2;49.3
44075;BME280;60448;44.956;7.660;2023-02-12T18:30:00;100460;;;14.2;49.3
44075;BME280;60448;44.956;7.660;2023-02-12T18:35:01;100470;;;14.2;49.3
44075;BME280;60448;44.956;7.660;2023-02-12T18:40:00;100470;;;14.2;49.3
44075;BME280;60448;44.956;7.660;2023-02-12T18:45:00;100490;;;14.3;49.3
44075;BME280;60448;44.956;7.660;2023-02-12T18:50:00;100500;;;14.3;49.4
44075;BME280;60448;44.956;7.660;2023-02-12T18:55:00;100500;;;14.3;49.4
44075;BME280;60448;44.956;7.660;2023-02-12T19:00:00;100500;;;14.3;49.4
44075;BME280;60448;44.956;7.660;2023-02-12T19:05:00;100520;;;14.3;49.3
44075;BME280;60448;44.956;7.660;2023-02-12T19:10:00;100520;;;14.3;49.3
44075;BME280;60448;44.956;7.660;2023-02-12T19:15:00;100520;;;14.3;49.3
44075;BME280;60448;44.956;7.660;2023-02-12T19:20:00;100530;;;14.3;49.3
44075;BME280;60448;44.956;7.660;2023-02-12T19:25:00;100530;;;14.3;49.3
44075;BME280;60448;44.956;7.660;2023-02-12T19:30:00;100530;;;14.3;49.3
44075;BME280;60448;44.956;7.660;2023-02-12T19:35:00;100550;;;14.4;49.3
44075;BME280;60448;44.956;7.660;2023-02-12T19:40:00;100550;;;14.4;49.3
44075;BME280;60448;44.956;7.660;2023-02-12T19:45:00;100550;;;14.4;49.3
44075;BME280;60448;44.956;7.660;2023-02-12T19:50:00;100570;;;14.4;49.3
44075;BME280;60448;44.956;7.660;2023-02-12T19:55:00;100570;;;14.4;49.3
44075;BME280;60448;44.956;7.660;2023-02-12T20:00:00;100570;;;14.4;49.3
44075;BME280;60448;44.956;7.660;2023-02-12T20:05:00;100610;;;14.4;49.3
44075;BME280;60448;44.956;7.660;2023-02-12T20:10:00;100610;;;14.4;49.3
44075;BME280;60448;44.956;7.660;2023-02-12T20:15:00;100610;;;14.4;49.3
44075;BME280;60448;44.956;7.660;2023-02-12T20:20:01;100620;;;14.4;49.2
44075;BME280;60448;44.956;7.660;2023-02-12T20:25:00;100620;;;14.4;49.2
44075;BME280;60448;44.956;7.660;2023-02-12T20:30:00;100620;;;14.4;49.2
44075;BME280;60448;44.956;7.660;2023-02-12T20:35:00;100640;;;14.5;49.2
44075;BME280;60448;44.956;7.660;2023-02-12T20:40:00;100650;;;14.4;49.2
44075;BME280;60448;44.956;7.660;2023-02-12T20:45:00;100650;;;14.4;49.2
44075;BME280;60448;44.956;7.660;2023-02-12T20:50:00;100650;;;14.4;49.2
44075;BME280;60448;44.956;7.660;2023-02-12T20:55:00;100660;;;14.5;49.1
44075;BME280;60448;44.956;7.660;2023-02-12T21:00:00;100660;;;14.5;49.1
44075;BME280;60448;44.956;7.660;2023-02-12T21:05:00;100660;;;14.5;49.1
44075;BME280;60448;44.956;7.660;2023-02-12T21:10:00;100680;;;14.5;49.1
44075;BME280;60448;44.956;7.660;2023-02-12T21:15:00;100680;;;14.5;49.1
44075;BME280;60448;44.956;7.660;2023-02-12T21:20:00;100680;;;14.5;49.1
44075;BME280;60448;44.956;7.660;2023-02-12T21:25:00;100690;;;14.5;49.2
44075;BME280;60448;44.956;7.660;2023-02-12T21:30:00;100690;;;14.5;49.2
44075;BME280;60448;44.956;7.660;2023-02-12T21:35:00;100690;;;14.5;49.2
44075;BME280;60448;44.956;7.660;2023-02-12T21:40:00;100700;;;14.5;49.1
44075;BME280;60448;44.956;7.660;2023-02-12T21:45:00;100700;;;14.5;49.1
44075;BME280;60448;44.956;7.660;2023-02-12T21:50:00;100700;;;14.5;49.1
44075;BME280;60448;44.956;7.660;2023-02-12T21:55:00;100720;;;14.6;49.2
44075;BME280;60448;44.956;7.660;2023-02-12T22:00:00;100710;;;14.5;49.2
44075;BME280;60448;44.956;7.660;2023-02-12T22:05:00;100710;;;14.5;49.2
44075;BME280;60448;44.956;7.660;2023-02-12T22:10:00;100730;;;14.6;49.2
44075;BME280;60448;44.956;7.660;2023-02-12T22:15:00;100730;;;14.5;49.2
44075;BME280;60448;44.956;7.660;2023-02-12T22:20:00;100730;;;14.5;49.2
44075;BME280;60448;44.956;7.660;2023-02-12T22:25:00;100730;;;14.5;49.2
44075;BME280;60448;44.956;7.660;2023-02-12T22:30:00;100750;;;14.5;49.3
44075;BME280;60448;44.956;7.660;2023-02-12T22:35:00;100750;;;14.5;49.3
44075;BME280;60448;44.956;7.660;2023-02-12T22:40:00;100750;;;14.5;49.3
44075;BME280;60448;44.956;7.660;2023-02-12T22:45:00;100770;;;14.5;49.2
44075;BME280;60448;44.956;7.660;2023-02-12T22:50:00;100770;;;14.5;49.2
44075;BME280;60448;44.956;7.660;2023-02-12T22:55:00;100770;;;14.5;49.2
44075;BME280;60448;44.956;7.660;2023-02-12T23:00:00;100780;;;14.5;49.3
44075;BME280;60448;44.956;7.660;2023-02-12T23:05:00;100780;;;14.5;49.3
44075;BME280;60448;44.956;7.660;2023-02-12T23:10:00;100780;;;14.5;49.3
44075;BME280;60448;44.956;7.660;2023-02-12T23:15:00;100810;;;14.5;49.3
44075;BME280;60448;44.956;7.660;2023-02-12T23:20:00;100810;;;14.5;49.3
44075;BME280;60448;44.956;7.660;2023-02-12T23:25:00;100810;;;14.5;49.3
44075;BME280;60448;44.956;7.660;2023-02-12T23:30:00;100810;;;14.5;49.3
44075;BME280;60448;44.956;7.660;2023-02-12T23:35:00;100810;;;14.5;49.3
44075;BME280;60448;44.956;7.660;2023-02-12T23:40:00;100810;;;14.5;49.3
44075;BME280;60448;44.956;7.660;2023-02-12T23:45:00;100810;;;14.5;49.3
44075;BME280;60448;44.956;7.660;2023-02-12T23:50:00;100810;;;14.5;49.2
44075;BME280;60448;44.956;7.660;2023-02-12T23:55:00;100810;;;14.5;49.2
